createdAt,value
2017-06-19T00:00:47.704Z,1018.86
2017-06-19T00:01:56.662Z,1018.89
2017-06-19T00:03:05.626Z,1018.9
2017-06-19T00:04:14.588Z,1018.84
2017-06-19T00:05:23.682Z,1018.85
2017-06-19T00:06:32.643Z,1018.85
2017-06-19T00:07:41.606Z,1018.85
2017-06-19T00:08:50.564Z,1018.83
2017-06-19T00:09:59.519Z,1018.81
2017-06-19T00:11:08.562Z,1018.84
2017-06-19T00:12:17.519Z,1018.79
2017-06-19T00:13:26.476Z,1018.78
2017-06-19T00:14:35.431Z,1018.77
2017-06-19T00:15:44.479Z,1018.79
2017-06-19T00:16:53.445Z,1018.8
2017-06-19T00:18:02.492Z,1018.78
2017-06-19T00:19:11.451Z,1018.78
2017-06-19T00:20:20.413Z,1018.77
2017-06-19T00:21:29.372Z,1018.76
2017-06-19T00:22:38.382Z,1018.76
2017-06-19T00:23:47.339Z,1018.78
2017-06-19T00:24:56.298Z,1018.76
2017-06-19T00:26:05.258Z,1018.73
2017-06-19T00:27:14.226Z,1018.73
2017-06-19T00:28:23.240Z,1018.73
2017-06-19T00:29:32.202Z,1018.7
2017-06-19T00:30:41.483Z,1018.65
2017-06-19T00:31:50.444Z,1018.71
2017-06-19T00:32:59.400Z,1018.7
2017-06-19T00:34:08.408Z,1018.67
2017-06-19T00:35:17.371Z,1018.69
2017-06-19T00:36:26.336Z,1018.71
2017-06-19T00:37:35.299Z,1018.67
2017-06-19T00:38:44.255Z,1018.65
2017-06-19T00:39:53.215Z,1018.65
2017-06-19T00:41:02.174Z,1018.64
2017-06-19T00:42:11.131Z,1018.61
2017-06-19T00:43:20.097Z,1018.62
2017-06-19T00:44:29.061Z,1018.61
2017-06-19T00:45:38.194Z,1018.62
2017-06-19T00:46:47.154Z,1018.6
2017-06-19T00:47:56.116Z,1018.58
2017-06-19T00:49:05.077Z,1018.58
2017-06-19T00:50:14.034Z,1018.61
2017-06-19T00:51:23.136Z,1018.62
2017-06-19T00:52:32.090Z,1018.65
2017-06-19T00:53:41.054Z,1018.68
2017-06-19T00:54:50.007Z,1018.68
2017-06-19T00:55:59.001Z,1018.67
2017-06-19T00:57:07.963Z,1018.67
2017-06-19T00:58:16.922Z,1018.65
2017-06-19T00:59:25.877Z,1018.65
2017-06-19T01:00:34.837Z,1018.65
2017-06-19T01:01:43.794Z,1018.67
2017-06-19T01:02:52.805Z,1018.69
2017-06-19T01:04:01.769Z,1018.67
2017-06-19T01:05:10.811Z,1018.68
2017-06-19T01:06:19.769Z,1018.7
2017-06-19T01:07:28.727Z,1018.72
2017-06-19T01:08:37.826Z,1018.7
2017-06-19T01:09:46.782Z,1018.69
2017-06-19T01:10:55.735Z,1018.66
2017-06-19T01:12:04.693Z,1018.69
2017-06-19T01:13:13.982Z,1018.65
2017-06-19T01:14:22.994Z,1018.68
2017-06-19T01:15:31.961Z,1018.7
2017-06-19T01:16:41.012Z,1018.71
2017-06-19T01:17:49.968Z,1018.69
2017-06-19T01:18:58.924Z,1018.65
2017-06-19T01:20:07.929Z,1018.72
2017-06-19T01:21:16.888Z,1018.68
2017-06-19T01:22:25.846Z,1018.66
2017-06-19T01:23:34.804Z,1018.68
2017-06-19T01:24:43.760Z,1018.71
2017-06-19T01:25:52.778Z,1018.65
2017-06-19T01:27:01.742Z,1018.66
2017-06-19T01:28:10.704Z,1018.65
2017-06-19T01:29:19.664Z,1018.62
2017-06-19T01:30:28.620Z,1018.65
2017-06-19T01:31:37.627Z,1018.64
2017-06-19T01:32:46.912Z,1018.61
2017-06-19T01:33:55.870Z,1018.62
2017-06-19T01:35:04.826Z,1018.63
2017-06-19T01:36:13.781Z,1018.64
2017-06-19T01:37:22.788Z,1018.62
2017-06-19T01:38:31.751Z,1018.61
2017-06-19T01:39:40.710Z,1018.59
2017-06-19T01:40:49.666Z,1018.64
2017-06-19T01:41:58.624Z,1018.62
2017-06-19T01:43:07.634Z,1018.62
2017-06-19T01:44:16.593Z,1018.62
2017-06-19T01:45:25.555Z,1018.6
2017-06-19T01:46:34.517Z,1018.58
2017-06-19T01:47:43.478Z,1018.57
2017-06-19T01:48:52.485Z,1018.57
2017-06-19T01:50:01.443Z,1018.6
2017-06-19T01:51:10.405Z,1018.63
2017-06-19T01:52:19.361Z,1018.58
2017-06-19T01:53:28.643Z,1018.58
2017-06-19T01:54:37.648Z,1018.57
2017-06-19T01:55:46.692Z,1018.55
2017-06-19T01:56:55.657Z,1018.55
2017-06-19T01:58:04.620Z,1018.58
2017-06-19T01:59:13.580Z,1018.61
2017-06-19T02:00:22.589Z,1018.61
2017-06-19T02:01:31.545Z,1018.58
2017-06-19T02:02:40.505Z,1018.57
2017-06-19T02:03:49.467Z,1018.6
2017-06-19T02:04:58.426Z,1018.54
2017-06-19T02:06:07.388Z,1018.59
2017-06-19T02:07:16.354Z,1018.59
2017-06-19T02:08:25.311Z,1018.62
2017-06-19T02:09:34.284Z,1018.61
2017-06-19T02:10:43.243Z,1018.61
2017-06-19T02:11:52.204Z,1018.63
2017-06-19T02:13:01.162Z,1018.6
2017-06-19T02:14:10.122Z,1018.6
2017-06-19T02:15:19.082Z,1018.61
2017-06-19T02:16:28.038Z,1018.64
2017-06-19T02:17:36.997Z,1018.65
2017-06-19T02:18:45.956Z,1018.67
2017-06-19T02:19:54.913Z,1018.62
2017-06-19T02:21:03.866Z,1018.62
2017-06-19T02:22:12.829Z,1018.61
2017-06-19T02:23:21.794Z,1018.61
2017-06-19T02:24:30.756Z,1018.59
2017-06-19T02:25:39.715Z,1018.59
2017-06-19T02:26:48.672Z,1018.59
2017-06-19T02:27:57.721Z,1018.61
2017-06-19T02:29:06.733Z,1018.64
2017-06-19T02:30:15.691Z,1018.65
2017-06-19T02:31:24.651Z,1018.62
2017-06-19T02:32:33.944Z,1018.63
2017-06-19T02:33:42.900Z,1018.64
2017-06-19T02:34:51.916Z,1018.61
2017-06-19T02:36:00.876Z,1018.62
2017-06-19T02:37:09.833Z,1018.62
2017-06-19T02:38:18.878Z,1018.65
2017-06-19T02:39:27.843Z,1018.64
2017-06-19T02:40:36.858Z,1018.65
2017-06-19T02:41:45.813Z,1018.69
2017-06-19T02:42:54.781Z,1018.66
2017-06-19T02:44:03.743Z,1018.68
2017-06-19T02:45:12.703Z,1018.71
2017-06-19T02:46:21.710Z,1018.77
2017-06-19T02:47:30.667Z,1018.72
2017-06-19T02:48:39.711Z,1018.76
2017-06-19T02:49:48.756Z,1018.78
2017-06-19T02:50:57.710Z,1018.79
2017-06-19T02:52:06.717Z,1018.78
2017-06-19T02:53:15.679Z,1018.77
2017-06-19T02:54:24.724Z,1018.75
2017-06-19T02:55:33.688Z,1018.75
2017-06-19T02:56:42.644Z,1018.75
2017-06-19T02:57:51.606Z,1018.73
2017-06-19T02:59:00.562Z,1018.74
2017-06-19T03:00:09.518Z,1018.74
2017-06-19T03:01:18.482Z,1018.72
2017-06-19T03:02:27.436Z,1018.74
2017-06-19T03:03:36.394Z,1018.74
2017-06-19T03:04:45.354Z,1018.73
2017-06-19T03:05:54.312Z,1018.71
2017-06-19T03:07:03.271Z,1018.73
2017-06-19T03:08:12.230Z,1018.72
2017-06-19T03:09:21.234Z,1018.72
2017-06-19T03:10:30.192Z,1018.7
2017-06-19T03:11:39.239Z,1018.72
2017-06-19T03:12:48.199Z,1018.74
2017-06-19T03:13:57.155Z,1018.74
2017-06-19T03:15:06.169Z,1018.73
2017-06-19T03:16:15.130Z,1018.79
2017-06-19T03:17:24.093Z,1018.75
2017-06-19T03:18:33.144Z,1018.79
2017-06-19T03:19:42.102Z,1018.78
2017-06-19T03:20:51.107Z,1018.76
2017-06-19T03:22:00.066Z,1018.76
2017-06-19T03:23:09.033Z,1018.76
2017-06-19T03:24:17.989Z,1018.77
2017-06-19T03:25:26.942Z,1018.79
2017-06-19T03:26:36.034Z,1018.83
2017-06-19T03:27:44.993Z,1018.79
2017-06-19T03:28:53.946Z,1018.79
2017-06-19T03:30:02.907Z,1018.83
2017-06-19T03:31:11.865Z,1018.8
2017-06-19T03:32:20.830Z,1018.81
2017-06-19T03:33:29.790Z,1018.8
2017-06-19T03:34:39.075Z,1018.8
2017-06-19T03:35:48.030Z,1018.83
2017-06-19T03:36:56.990Z,1018.81
2017-06-19T03:38:05.998Z,1018.8
2017-06-19T03:39:14.957Z,1018.82
2017-06-19T03:40:23.913Z,1018.85
2017-06-19T03:41:32.869Z,1018.84
2017-06-19T03:42:41.829Z,1018.84
2017-06-19T03:43:50.835Z,1018.87
2017-06-19T03:44:59.787Z,1018.89
2017-06-19T03:46:08.747Z,1018.91
2017-06-19T03:47:17.705Z,1018.89
2017-06-19T03:48:26.665Z,1018.86
2017-06-19T03:49:35.678Z,1018.91
2017-06-19T03:50:44.640Z,1018.87
2017-06-19T03:51:53.923Z,1018.89
2017-06-19T03:53:02.879Z,1018.91
2017-06-19T03:54:11.839Z,1018.89
2017-06-19T03:55:20.798Z,1018.91
2017-06-19T03:56:29.761Z,1018.93
2017-06-19T03:57:38.722Z,1018.91
2017-06-19T03:58:47.679Z,1018.89
2017-06-19T03:59:56.960Z,1018.94
2017-06-19T04:01:06.005Z,1018.88
2017-06-19T04:02:14.968Z,1018.89
2017-06-19T04:03:23.925Z,1018.91
2017-06-19T04:04:32.919Z,1018.9
2017-06-19T04:05:41.875Z,1018.92
2017-06-19T04:06:51.086Z,1018.89
2017-06-19T04:08:00.047Z,1018.92
2017-06-19T04:09:09.009Z,1018.92
2017-06-19T04:10:17.968Z,1018.94
2017-06-19T04:11:26.968Z,1018.94
2017-06-19T04:12:36.309Z,1018.93
2017-06-19T04:13:45.263Z,1018.91
2017-06-19T04:14:54.222Z,1018.93
2017-06-19T04:16:03.181Z,1018.91
2017-06-19T04:17:12.142Z,1018.92
2017-06-19T04:18:21.149Z,1018.91
2017-06-19T04:19:30.108Z,1018.92
2017-06-19T04:20:39.066Z,1018.85
2017-06-19T04:21:48.026Z,1018.92
2017-06-19T04:22:57.073Z,1018.89
2017-06-19T04:24:06.359Z,1018.92
2017-06-19T04:25:15.318Z,1018.9
2017-06-19T04:26:24.271Z,1018.96
2017-06-19T04:27:33.231Z,1018.92
2017-06-19T04:28:42.196Z,1018.94
2017-06-19T04:29:51.197Z,1018.95
2017-06-19T04:31:00.155Z,1018.96
2017-06-19T04:32:09.238Z,1018.94
2017-06-19T04:33:18.207Z,1018.93
2017-06-19T04:34:27.172Z,1018.93
2017-06-19T04:35:36.130Z,1018.94
2017-06-19T04:36:45.094Z,1018.96
2017-06-19T04:37:54.062Z,1018.93
2017-06-19T04:39:03.026Z,1018.96
2017-06-19T04:40:11.989Z,1018.96
2017-06-19T04:41:20.948Z,1018.98
2017-06-19T04:42:29.901Z,1018.93
2017-06-19T04:43:38.861Z,1018.92
2017-06-19T04:44:47.823Z,1018.93
2017-06-19T04:45:56.785Z,1018.94
2017-06-19T04:47:05.747Z,1018.95
2017-06-19T04:48:14.743Z,1018.95
2017-06-19T04:49:23.698Z,1018.94
2017-06-19T04:50:32.654Z,1018.96
2017-06-19T04:51:41.614Z,1018.94
2017-06-19T04:52:50.624Z,1018.96
2017-06-19T04:53:59.596Z,1018.99
2017-06-19T04:55:08.553Z,1018.99
2017-06-19T04:56:17.542Z,1018.97
2017-06-19T04:57:26.510Z,1018.95
2017-06-19T04:58:35.519Z,1018.97
2017-06-19T04:59:45.129Z,1018.96
2017-06-19T05:00:54.092Z,1018.98
2017-06-19T05:02:03.052Z,1018.95
2017-06-19T05:03:12.016Z,1018.96
2017-06-19T05:04:20.976Z,1018.96
2017-06-19T05:05:29.937Z,1018.98
2017-06-19T05:06:38.921Z,1018.97
2017-06-19T05:07:47.888Z,1018.99
2017-06-19T05:08:56.858Z,1018.97
2017-06-19T05:10:05.847Z,1018.98
2017-06-19T05:11:14.902Z,1018.95
2017-06-19T05:12:23.863Z,1018.97
2017-06-19T05:13:32.822Z,1018.99
2017-06-19T05:14:41.776Z,1018.95
2017-06-19T05:15:50.788Z,1018.96
2017-06-19T05:16:59.751Z,1018.93
2017-06-19T05:18:08.708Z,1018.94
2017-06-19T05:19:17.666Z,1018.91
2017-06-19T05:20:26.626Z,1018.93
2017-06-19T05:21:35.587Z,1018.93
2017-06-19T05:22:44.546Z,1018.92
2017-06-19T05:23:53.595Z,1018.92
2017-06-19T05:25:02.556Z,1018.89
2017-06-19T05:26:11.601Z,1018.91
2017-06-19T05:27:20.613Z,1018.88
2017-06-19T05:28:29.577Z,1018.85
2017-06-19T05:29:38.948Z,1018.9
2017-06-19T05:30:47.908Z,1018.91
2017-06-19T05:31:56.865Z,1018.91
2017-06-19T05:33:05.824Z,1018.89
2017-06-19T05:34:14.784Z,1018.91
2017-06-19T05:35:23.749Z,1018.91
2017-06-19T05:36:32.715Z,1018.91
2017-06-19T05:37:41.675Z,1018.92
2017-06-19T05:38:50.681Z,1018.91
2017-06-19T05:39:59.640Z,1018.92
2017-06-19T05:41:08.599Z,1018.93
2017-06-19T05:42:17.561Z,1018.92
2017-06-19T05:43:26.521Z,1018.92
2017-06-19T05:44:35.620Z,1018.92
2017-06-19T05:45:44.584Z,1018.92
2017-06-19T05:46:53.584Z,1018.93
2017-06-19T05:48:02.554Z,1018.89
2017-06-19T05:49:11.601Z,1018.95
2017-06-19T05:50:20.610Z,1018.91
2017-06-19T05:51:29.572Z,1018.89
2017-06-19T05:52:38.532Z,1018.9
2017-06-19T05:53:47.490Z,1018.92
2017-06-19T05:54:56.623Z,1018.95
2017-06-19T05:56:05.583Z,1018.92
2017-06-19T05:57:14.548Z,1018.91
2017-06-19T05:58:23.512Z,1018.91
2017-06-19T05:59:32.484Z,1018.92
2017-06-19T06:00:41.447Z,1018.9
2017-06-19T06:01:50.410Z,1018.94
2017-06-19T06:02:59.377Z,1018.89
2017-06-19T06:04:08.664Z,1018.92
2017-06-19T06:05:17.618Z,1018.9
2017-06-19T06:06:26.579Z,1018.86
2017-06-19T06:07:35.594Z,1018.89
2017-06-19T06:08:44.556Z,1018.87
2017-06-19T06:09:53.529Z,1018.88
2017-06-19T06:11:02.495Z,1018.89
2017-06-19T06:12:11.451Z,1018.89
2017-06-19T06:13:20.412Z,1018.93
2017-06-19T06:14:29.371Z,1018.9
2017-06-19T06:15:38.330Z,1018.94
2017-06-19T06:16:47.361Z,1018.91
2017-06-19T06:17:56.329Z,1018.95
2017-06-19T06:19:05.287Z,1018.96
2017-06-19T06:20:14.250Z,1018.96
2017-06-19T06:21:23.216Z,1018.97
2017-06-19T06:22:32.176Z,1018.98
2017-06-19T06:23:41.146Z,1018.94
2017-06-19T06:24:50.156Z,1018.95
2017-06-19T06:25:59.118Z,1018.98
2017-06-19T06:27:08.080Z,1018.92
2017-06-19T06:28:17.133Z,1018.93
2017-06-19T06:29:26.093Z,1018.89
2017-06-19T06:30:35.103Z,1018.86
2017-06-19T06:31:44.059Z,1018.88
2017-06-19T06:32:53.107Z,1018.89
2017-06-19T06:34:02.088Z,1018.9
2017-06-19T06:35:11.050Z,1018.9
2017-06-19T06:36:20.064Z,1018.87
2017-06-19T06:37:29.028Z,1018.9
2017-06-19T06:38:37.990Z,1018.91
2017-06-19T06:39:46.947Z,1018.87
2017-06-19T06:40:55.904Z,1018.87
2017-06-19T06:42:04.868Z,1018.88
2017-06-19T06:43:13.827Z,1018.88
2017-06-19T06:44:22.788Z,1018.87
2017-06-19T06:45:31.752Z,1018.88
2017-06-19T06:46:40.717Z,1018.94
2017-06-19T06:47:49.776Z,1018.91
2017-06-19T06:48:58.740Z,1018.91
2017-06-19T06:50:07.705Z,1018.94
2017-06-19T06:51:16.665Z,1018.93
2017-06-19T06:52:25.628Z,1018.97
2017-06-19T06:53:34.645Z,1018.96
2017-06-19T06:54:43.614Z,1018.98
2017-06-19T06:55:52.578Z,1018.95
2017-06-19T06:57:01.627Z,1018.96
2017-06-19T06:58:10.587Z,1018.95
2017-06-19T06:59:19.596Z,1018.95
2017-06-19T07:00:28.553Z,1018.93
2017-06-19T07:01:37.512Z,1018.96
2017-06-19T07:02:46.512Z,1018.94
2017-06-19T07:03:55.474Z,1018.92
2017-06-19T07:05:04.809Z,1018.93
2017-06-19T07:06:13.775Z,1018.91
2017-06-19T07:07:23.062Z,1018.93
2017-06-19T07:08:32.108Z,1018.9
2017-06-19T07:09:41.068Z,1018.89
2017-06-19T07:10:50.113Z,1018.88
2017-06-19T07:11:59.073Z,1018.88
2017-06-19T07:13:08.028Z,1018.86
2017-06-19T07:14:16.984Z,1018.83
2017-06-19T07:15:26.032Z,1018.84
2017-06-19T07:16:34.992Z,1018.82
2017-06-19T07:17:43.958Z,1018.82
2017-06-19T07:18:52.920Z,1018.85
2017-06-19T07:20:01.883Z,1018.85
2017-06-19T07:21:10.844Z,1018.88
2017-06-19T07:22:20.108Z,1018.83
2017-06-19T07:23:29.159Z,1018.83
2017-06-19T07:24:38.121Z,1018.82
2017-06-19T07:25:47.164Z,1018.83
2017-06-19T07:26:56.126Z,1018.8
2017-06-19T07:28:05.344Z,1018.85
2017-06-19T07:29:14.311Z,1018.89
2017-06-19T07:30:23.272Z,1018.84
2017-06-19T07:31:32.237Z,1018.84
2017-06-19T07:32:41.199Z,1018.85
2017-06-19T07:33:50.410Z,1018.75
2017-06-19T07:34:59.371Z,1018.77
2017-06-19T07:36:08.335Z,1018.78
2017-06-19T07:37:17.294Z,1018.8
2017-06-19T07:38:26.255Z,1018.8
2017-06-19T07:39:35.517Z,1018.75
2017-06-19T07:40:44.479Z,1018.76
2017-06-19T07:41:53.442Z,1018.76
2017-06-19T07:43:02.400Z,1018.74
2017-06-19T07:44:11.358Z,1018.74
2017-06-19T07:45:20.950Z,1018.76
2017-06-19T07:46:29.911Z,1018.79
2017-06-19T07:47:38.874Z,1018.76
2017-06-19T07:48:47.836Z,1018.75
2017-06-19T07:49:56.886Z,1018.74
2017-06-19T07:51:06.098Z,1018.77
2017-06-19T07:52:15.059Z,1018.76
2017-06-19T07:53:24.015Z,1018.74
2017-06-19T07:54:32.990Z,1018.74
2017-06-19T07:55:41.959Z,1018.71
2017-06-19T07:56:51.220Z,1018.7
2017-06-19T07:58:00.270Z,1018.72
2017-06-19T07:59:09.240Z,1018.69
2017-06-19T08:00:18.200Z,1018.68
2017-06-19T08:01:27.166Z,1018.71
2017-06-19T08:02:36.377Z,1018.68
2017-06-19T08:03:45.663Z,1018.69
2017-06-19T08:04:54.621Z,1018.68
2017-06-19T08:06:03.586Z,1018.7
2017-06-19T08:07:12.550Z,1018.73
2017-06-19T08:08:21.768Z,1018.91
2017-06-19T08:09:30.731Z,1018.91
2017-06-19T08:10:39.695Z,1018.87
2017-06-19T08:11:48.988Z,1018.85
2017-06-19T08:12:57.947Z,1018.76
2017-06-19T08:14:07.156Z,1018.72
2017-06-19T08:15:16.114Z,1018.68
2017-06-19T08:16:25.082Z,1018.65
2017-06-19T08:17:34.046Z,1018.65
2017-06-19T08:18:43.018Z,1018.6
2017-06-19T08:19:52.272Z,1018.59
2017-06-19T08:21:01.232Z,1018.58
2017-06-19T08:22:10.192Z,1018.55
2017-06-19T08:23:19.158Z,1018.56
2017-06-19T08:24:28.119Z,1018.59
2017-06-19T08:25:37.333Z,1018.64
2017-06-19T08:26:46.298Z,1018.63
2017-06-19T08:27:55.263Z,1018.62
2017-06-19T08:29:04.232Z,1018.62
2017-06-19T08:30:13.230Z,1018.61
2017-06-19T08:31:22.447Z,1018.62
2017-06-19T08:32:31.420Z,1018.63
2017-06-19T08:33:40.390Z,1018.6
2017-06-19T08:34:49.358Z,1018.55
2017-06-19T08:35:58.497Z,1018.54
2017-06-19T08:37:08.084Z,1018.55
2017-06-19T08:38:17.045Z,1018.56
2017-06-19T08:39:26.005Z,1018.55
2017-06-19T08:40:34.970Z,1018.53
2017-06-19T08:41:43.928Z,1018.51
2017-06-19T08:42:53.140Z,1018.5
2017-06-19T08:44:02.108Z,1018.49
2017-06-19T08:45:11.398Z,1018.5
2017-06-19T08:46:20.358Z,1018.49
2017-06-19T08:47:29.350Z,1018.44
2017-06-19T08:48:38.567Z,1018.42
2017-06-19T08:49:47.524Z,1018.45
2017-06-19T08:50:56.485Z,1018.44
2017-06-19T08:52:05.451Z,1018.44
2017-06-19T08:53:14.418Z,1018.43
2017-06-19T08:54:23.630Z,1018.4
2017-06-19T08:55:32.592Z,1018.41
2017-06-19T08:56:41.645Z,1018.42
2017-06-19T08:57:50.614Z,1018.37
2017-06-19T08:58:59.898Z,1018.36
2017-06-19T09:00:09.162Z,1018.39
2017-06-19T09:01:18.126Z,1018.29
2017-06-19T09:02:27.096Z,1018.31
2017-06-19T09:03:36.108Z,1018.31
2017-06-19T09:04:45.405Z,1018.27
2017-06-19T09:05:54.663Z,1018.24
2017-06-19T09:07:03.630Z,1018.26
2017-06-19T09:08:12.677Z,1018.27
2017-06-19T09:09:21.643Z,1018.25
2017-06-19T09:10:30.609Z,1018.23
2017-06-19T09:11:39.874Z,1018.22
2017-06-19T09:12:48.836Z,1018.24
2017-06-19T09:13:57.801Z,1018.2
2017-06-19T09:15:06.768Z,1018.18
2017-06-19T09:16:15.731Z,1018.25
2017-06-19T09:17:25.283Z,1018.21
2017-06-19T09:18:34.288Z,1018.22
2017-06-19T09:19:43.248Z,1018.2
2017-06-19T09:20:52.235Z,1018.22
2017-06-19T09:22:01.532Z,1018.17
2017-06-19T09:23:10.798Z,1018.21
2017-06-19T09:24:19.770Z,1018.18
2017-06-19T09:25:28.730Z,1018.18
2017-06-19T09:26:37.700Z,1018.16
2017-06-19T09:27:46.682Z,1018.13
2017-06-19T09:28:55.947Z,1018.13
2017-06-19T09:30:04.908Z,1018.12
2017-06-19T09:31:13.870Z,1018.09
2017-06-19T09:32:22.831Z,1018.06
2017-06-19T09:33:31.797Z,1018.07
2017-06-19T09:34:41.017Z,1018.08
2017-06-19T09:35:49.983Z,1018.09
2017-06-19T09:36:59.295Z,1018.13
2017-06-19T09:38:08.258Z,1018.08
2017-06-19T09:39:17.233Z,1018.1
2017-06-19T09:40:26.504Z,1018.08
2017-06-19T09:41:35.470Z,1018.07
2017-06-19T09:42:44.434Z,1018.05
2017-06-19T09:43:53.396Z,1018.03
2017-06-19T09:45:02.361Z,1018.03
2017-06-19T09:46:11.575Z,1018.02
2017-06-19T09:47:20.857Z,1018.03
2017-06-19T09:48:29.827Z,1018.02
2017-06-19T09:49:38.789Z,1018.01
2017-06-19T09:50:47.752Z,1018.01
2017-06-19T09:51:56.964Z,1017.99
2017-06-19T09:53:05.929Z,1017.99
2017-06-19T09:54:14.888Z,1018
2017-06-19T09:55:23.853Z,1018.03
2017-06-19T09:56:32.822Z,1018
2017-06-19T09:57:42.044Z,1017.95
2017-06-19T09:58:51.009Z,1017.95
2017-06-19T09:59:59.977Z,1017.94
2017-06-19T10:01:09.265Z,1017.92
2017-06-19T10:02:18.232Z,1017.88
2017-06-19T10:03:27.504Z,1017.91
2017-06-19T10:04:36.468Z,1017.89
2017-06-19T10:05:45.429Z,1017.9
2017-06-19T10:06:54.396Z,1017.91
2017-06-19T10:08:03.362Z,1017.9
2017-06-19T10:09:12.577Z,1017.88
2017-06-19T10:10:21.535Z,1017.88
2017-06-19T10:11:30.502Z,1017.87
2017-06-19T10:12:39.474Z,1017.83
2017-06-19T10:13:48.438Z,1017.88
2017-06-19T10:14:57.660Z,1017.87
2017-06-19T10:16:06.946Z,1017.85
2017-06-19T10:17:15.916Z,1017.76
2017-06-19T10:18:24.885Z,1017.74
2017-06-19T10:19:33.857Z,1017.66
2017-06-19T10:20:43.398Z,1017.68
2017-06-19T10:21:52.705Z,1017.67
2017-06-19T10:23:01.668Z,1017.64
2017-06-19T10:24:10.651Z,1017.64
2017-06-19T10:25:19.621Z,1017.7
2017-06-19T10:26:28.843Z,1017.63
2017-06-19T10:27:37.802Z,1017.63
2017-06-19T10:28:46.769Z,1017.62
2017-06-19T10:29:55.734Z,1017.63
2017-06-19T10:31:04.701Z,1017.66
2017-06-19T10:32:13.967Z,1017.66
2017-06-19T10:33:22.936Z,1017.63
2017-06-19T10:34:31.912Z,1017.61
2017-06-19T10:35:40.880Z,1017.63
2017-06-19T10:36:49.849Z,1017.65
2017-06-19T10:37:59.449Z,1017.57
2017-06-19T10:39:08.415Z,1017.56
2017-06-19T10:40:17.697Z,1017.56
2017-06-19T10:41:26.667Z,1017.55
2017-06-19T10:42:35.967Z,1017.52
2017-06-19T10:43:45.230Z,1017.53
2017-06-19T10:44:54.194Z,1017.48
2017-06-19T10:46:03.178Z,1017.48
2017-06-19T10:47:12.463Z,1017.47
2017-06-19T10:48:21.428Z,1017.48
2017-06-19T10:49:30.691Z,1017.45
2017-06-19T10:50:39.657Z,1017.42
2017-06-19T10:51:48.703Z,1017.39
2017-06-19T10:52:57.669Z,1017.35
2017-06-19T10:54:06.632Z,1017.35
2017-06-19T10:55:15.844Z,1017.34
2017-06-19T10:56:24.810Z,1017.32
2017-06-19T10:57:33.785Z,1017.31
2017-06-19T10:58:42.747Z,1017.28
2017-06-19T10:59:52.029Z,1017.25
2017-06-19T11:01:01.248Z,1017.23
2017-06-19T11:02:10.215Z,1017.28
2017-06-19T11:03:19.177Z,1017.25
2017-06-19T11:04:28.135Z,1017.22
2017-06-19T11:05:37.097Z,1017.26
2017-06-19T11:06:46.638Z,1017.21
2017-06-19T11:07:55.596Z,1017.21
2017-06-19T11:09:04.556Z,1017.23
2017-06-19T11:10:13.518Z,1017.23
2017-06-19T11:11:22.483Z,1017.19
2017-06-19T11:12:31.746Z,1017.15
2017-06-19T11:13:40.712Z,1017.1
2017-06-19T11:14:49.672Z,1017.15
2017-06-19T11:15:58.635Z,1017.11
2017-06-19T11:17:07.597Z,1017.11
2017-06-19T11:18:16.809Z,1017.07
2017-06-19T11:19:25.769Z,1017.02
2017-06-19T11:20:34.739Z,1017.03
2017-06-19T11:21:43.702Z,1017.02
2017-06-19T11:22:52.671Z,1017.05
2017-06-19T11:24:01.944Z,1016.96
2017-06-19T11:25:10.998Z,1016.97
2017-06-19T11:26:19.978Z,1016.96
2017-06-19T11:27:28.944Z,1017.03
2017-06-19T11:28:37.908Z,1017.02
2017-06-19T11:29:47.119Z,1016.96
2017-06-19T11:30:56.083Z,1016.99
2017-06-19T11:32:05.050Z,1016.99
2017-06-19T11:33:14.337Z,1016.92
2017-06-19T11:34:23.295Z,1016.91
2017-06-19T11:35:32.562Z,1016.89
2017-06-19T11:36:41.530Z,1016.89
2017-06-19T11:37:50.492Z,1016.86
2017-06-19T11:38:59.457Z,1016.84
2017-06-19T11:40:08.421Z,1016.81
2017-06-19T11:41:17.634Z,1016.83
2017-06-19T11:42:26.599Z,1016.8
2017-06-19T11:43:35.564Z,1016.8
2017-06-19T11:44:44.531Z,1016.77
2017-06-19T11:45:53.492Z,1016.76
2017-06-19T11:47:02.767Z,1016.81
2017-06-19T11:48:11.728Z,1016.8
2017-06-19T11:49:20.693Z,1016.77
2017-06-19T11:50:29.655Z,1016.71
2017-06-19T11:51:38.620Z,1016.69
2017-06-19T11:52:47.882Z,1016.7
2017-06-19T11:53:56.841Z,1016.66
2017-06-19T11:55:05.805Z,1016.65
2017-06-19T11:56:14.767Z,1016.64
2017-06-19T11:57:23.723Z,1016.6
2017-06-19T11:58:33.259Z,1016.62
2017-06-19T11:59:42.224Z,1016.6
2017-06-19T12:00:51.200Z,1016.59
2017-06-19T12:02:00.167Z,1016.54
2017-06-19T12:03:09.130Z,1016.53
2017-06-19T12:04:18.392Z,1016.5
2017-06-19T12:05:27.356Z,1016.5
2017-06-19T12:06:36.322Z,1016.51
2017-06-19T12:07:45.288Z,1016.48
2017-06-19T12:08:54.259Z,1016.48
2017-06-19T12:10:03.481Z,1016.47
2017-06-19T12:11:12.457Z,1016.4
2017-06-19T12:12:21.423Z,1016.43
2017-06-19T12:13:30.386Z,1016.4
2017-06-19T12:14:39.353Z,1016.37
2017-06-19T12:15:48.889Z,1016.36
2017-06-19T12:16:57.854Z,1016.39
2017-06-19T12:18:06.822Z,1016.36
2017-06-19T12:19:15.790Z,1016.34
2017-06-19T12:20:24.752Z,1016.29
2017-06-19T12:21:34.016Z,1016.26
2017-06-19T12:22:42.981Z,1016.27
2017-06-19T12:23:51.955Z,1016.25
2017-06-19T12:25:00.920Z,1016.25
2017-06-19T12:26:10.087Z,1016.23
2017-06-19T12:27:19.559Z,1016.2
2017-06-19T12:28:28.533Z,1016.25
2017-06-19T12:29:37.505Z,1016.24
2017-06-19T12:30:46.472Z,1016.26
2017-06-19T12:31:55.439Z,1016.19
2017-06-19T12:33:04.654Z,1016.21
2017-06-19T12:34:13.622Z,1016.23
2017-06-19T12:35:22.588Z,1016.14
2017-06-19T12:36:31.567Z,1016.11
2017-06-19T12:37:40.531Z,1016.13
2017-06-19T12:38:49.799Z,1016.12
2017-06-19T12:39:58.767Z,1016.06
2017-06-19T12:41:07.731Z,1016.05
2017-06-19T12:42:16.695Z,1016.06
2017-06-19T12:43:25.662Z,1016.06
2017-06-19T12:44:34.931Z,1016.05
2017-06-19T12:45:43.895Z,1016
2017-06-19T12:46:52.860Z,1015.99
2017-06-19T12:48:01.828Z,1015.97
2017-06-19T12:49:10.792Z,1015.98
2017-06-19T12:50:20.147Z,1016
2017-06-19T12:51:29.115Z,1015.93
2017-06-19T12:52:38.079Z,1015.87
2017-06-19T12:53:47.040Z,1015.85
2017-06-19T12:54:56.332Z,1015.88
2017-06-19T12:56:05.549Z,1015.87
2017-06-19T12:57:14.515Z,1015.85
2017-06-19T12:58:23.482Z,1015.82
2017-06-19T12:59:32.484Z,1015.81
2017-06-19T13:00:41.533Z,1015.84
2017-06-19T13:01:50.746Z,1015.85
2017-06-19T13:02:59.711Z,1015.81
2017-06-19T13:04:08.675Z,1015.76
2017-06-19T13:05:17.642Z,1015.76
2017-06-19T13:06:26.618Z,1015.73
2017-06-19T13:07:35.886Z,1015.7
2017-06-19T13:08:44.847Z,1015.65
2017-06-19T13:09:53.898Z,1015.67
2017-06-19T13:11:02.867Z,1015.68
2017-06-19T13:12:11.833Z,1015.67
2017-06-19T13:13:21.057Z,1015.66
2017-06-19T13:14:30.018Z,1015.64
2017-06-19T13:15:38.975Z,1015.66
2017-06-19T13:16:47.942Z,1015.65
2017-06-19T13:17:56.910Z,1015.64
2017-06-19T13:19:06.462Z,1015.64
2017-06-19T13:20:15.430Z,1015.6
2017-06-19T13:21:24.407Z,1015.6
2017-06-19T13:22:33.383Z,1015.6
2017-06-19T13:23:42.347Z,1015.61
2017-06-19T13:24:51.622Z,1015.57
2017-06-19T13:26:00.591Z,1015.56
2017-06-19T13:27:09.557Z,1015.56
2017-06-19T13:28:18.523Z,1015.53
2017-06-19T13:29:27.487Z,1015.53
2017-06-19T13:30:36.700Z,1015.47
2017-06-19T13:31:45.750Z,1015.5
2017-06-19T13:32:54.731Z,1015.52
2017-06-19T13:34:04.031Z,1015.5
2017-06-19T13:35:12.993Z,1015.51
2017-06-19T13:36:22.585Z,1015.49
2017-06-19T13:37:31.555Z,1015.45
2017-06-19T13:38:40.518Z,1015.43
2017-06-19T13:39:49.482Z,1015.45
2017-06-19T13:40:58.538Z,1015.42
2017-06-19T13:42:07.760Z,1015.36
2017-06-19T13:43:16.724Z,1015.36
2017-06-19T13:44:25.685Z,1015.34
2017-06-19T13:45:34.654Z,1015.32
2017-06-19T13:46:43.620Z,1015.27
2017-06-19T13:47:52.835Z,1015.32
2017-06-19T13:49:01.794Z,1015.26
2017-06-19T13:50:10.759Z,1015.21
2017-06-19T13:51:19.726Z,1015.25
2017-06-19T13:52:28.691Z,1015.23
2017-06-19T13:53:37.956Z,1015.2
2017-06-19T13:54:46.917Z,1015.19
2017-06-19T13:55:55.882Z,1015.19
2017-06-19T13:57:04.850Z,1015.24
2017-06-19T13:58:13.815Z,1015.16